createdAt,value
2022-11-16T00:00:20.063Z,46.83
2022-11-16T00:01:23.296Z,41.38
2022-11-16T00:02:24.843Z,43.47
2022-11-16T00:03:26.573Z,45.10
2022-11-16T00:04:28.114Z,40.20
2022-11-16T00:05:29.722Z,45.75
2022-11-16T00:06:31.431Z,40.47
2022-11-16T00:07:33.065Z,41.10
2022-11-16T00:08:36.637Z,41.50
2022-11-16T00:09:38.300Z,42.33
2022-11-16T00:10:39.849Z,42.70
2022-11-16T00:11:41.720Z,44.17
2022-11-16T00:12:43.274Z,42.58
2022-11-16T00:13:44.824Z,42.58
2022-11-16T00:14:46.429Z,42.28
2022-11-16T00:15:57.229Z,43.13
2022-11-16T00:16:58.840Z,42.17
2022-11-16T00:18:00.418Z,40.97
2022-11-16T00:19:03.453Z,45.05
2022-11-16T00:20:05.472Z,42.20
2022-11-16T00:21:07.345Z,42.13
2022-11-16T00:22:08.907Z,43.05
2022-11-16T00:23:10.468Z,42.00
2022-11-16T00:24:13.142Z,42.03
2022-11-16T00:25:14.706Z,40.28
2022-11-16T00:26:16.242Z,42.50
2022-11-16T00:27:17.846Z,39.97
2022-11-16T00:28:19.496Z,42.90
2022-11-16T00:29:23.619Z,45.70
2022-11-16T00:30:25.160Z,42.20
2022-11-16T00:31:26.691Z,42.63
2022-11-16T00:32:28.247Z,40.53
2022-11-16T00:33:29.880Z,42.45
2022-11-16T00:34:31.473Z,41.95
2022-11-16T00:35:38.342Z,41.45
2022-11-16T00:36:39.934Z,40.67
2022-11-16T00:37:41.508Z,43.40
2022-11-16T00:38:43.148Z,41.63
2022-11-16T00:39:44.770Z,40.95
2022-11-16T00:40:46.323Z,39.97
2022-11-16T00:41:48.200Z,41.85
2022-11-16T00:42:49.840Z,42.83
2022-11-16T00:43:51.442Z,40.55
2022-11-16T00:44:53.038Z,41.90
2022-11-16T00:45:54.627Z,40.33
2022-11-16T00:46:56.190Z,42.67
2022-11-16T00:48:00.479Z,40.10
2022-11-16T00:49:02.465Z,39.45
2022-11-16T00:50:04.544Z,43.42
2022-11-16T00:51:06.311Z,40.65
2022-11-16T00:52:07.931Z,40.30
2022-11-16T00:53:10.554Z,41.55
2022-11-16T00:54:12.160Z,41.15
2022-11-16T00:55:13.718Z,37.83
2022-11-16T00:56:15.268Z,42.50
2022-11-16T00:57:16.813Z,45.00
2022-11-16T00:58:18.345Z,40.37
2022-11-16T00:59:19.982Z,40.95
2022-11-16T01:00:21.522Z,42.25
2022-11-16T01:01:23.173Z,42.00
2022-11-16T01:02:24.819Z,39.92
2022-11-16T01:03:26.425Z,44.53
2022-11-16T01:04:28.034Z,42.50
2022-11-16T01:05:29.687Z,44.00
2022-11-16T01:06:31.209Z,42.92
2022-11-16T01:07:32.774Z,40.85
2022-11-16T01:08:35.904Z,42.87
2022-11-16T01:09:37.711Z,41.40
2022-11-16T01:10:40.084Z,42.55
2022-11-16T01:12:00.302Z,38.00
2022-11-16T01:13:01.840Z,42.90
2022-11-16T01:14:05.080Z,40.85
2022-11-16T01:15:09.084Z,40.03
2022-11-16T01:16:14.490Z,39.95
2022-11-16T01:17:16.038Z,41.38
2022-11-16T01:18:17.586Z,42.55
2022-11-16T01:19:19.381Z,40.10
2022-11-16T01:20:26.951Z,41.70
2022-11-16T01:21:28.507Z,42.38
2022-11-16T01:22:30.032Z,41.72
2022-11-16T01:23:31.569Z,41.03
2022-11-16T01:24:33.267Z,41.58
2022-11-16T01:25:34.822Z,43.10
2022-11-16T01:26:36.382Z,41.47
2022-11-16T01:27:38.035Z,42.33
2022-11-16T01:28:39.567Z,41.58
2022-11-16T01:29:41.333Z,42.30
2022-11-16T01:30:48.444Z,43.22
2022-11-16T01:31:50.079Z,42.20
2022-11-16T01:32:51.642Z,43.40
2022-11-16T01:33:54.420Z,42.17
2022-11-16T01:34:56.177Z,41.83
2022-11-16T01:35:57.792Z,43.45
2022-11-16T01:36:59.329Z,43.90
2022-11-16T01:38:00.894Z,43.58
2022-11-16T01:39:03.102Z,47.00
2022-11-16T01:40:05.194Z,42.10
2022-11-16T01:41:06.786Z,45.08
2022-11-16T01:42:19.549Z,41.03
2022-11-16T01:43:24.040Z,40.15
2022-11-16T01:44:31.564Z,42.50
2022-11-16T01:45:38.721Z,40.80
2022-11-16T01:46:40.378Z,39.58
2022-11-16T01:47:41.913Z,41.90
2022-11-16T01:48:43.521Z,43.38
2022-11-16T01:49:51.072Z,39.38
2022-11-16T01:50:52.640Z,42.17
2022-11-16T01:51:59.534Z,39.38
2022-11-16T01:53:02.450Z,43.05
2022-11-16T01:54:07.242Z,43.22
2022-11-16T01:55:08.925Z,41.53
2022-11-16T01:56:10.458Z,41.83
2022-11-16T01:57:14.402Z,40.42
2022-11-16T01:58:18.819Z,42.40
2022-11-16T01:59:20.436Z,42.63
2022-11-16T02:00:22.137Z,41.90
2022-11-16T02:01:24.117Z,40.23
2022-11-16T02:02:25.729Z,39.42
2022-11-16T02:03:27.261Z,43.25
2022-11-16T02:04:28.978Z,41.17
2022-11-16T02:05:34.464Z,41.28
2022-11-16T02:07:02.143Z,40.05
2022-11-16T02:08:38.233Z,40.47
2022-11-16T02:09:55.290Z,39.72
2022-11-16T02:11:15.490Z,37.30
2022-11-16T02:12:43.516Z,37.60
2022-11-16T02:14:04.357Z,38.43
2022-11-16T02:15:11.106Z,37.45
2022-11-16T02:16:35.761Z,39.40
2022-11-16T02:17:58.914Z,39.08
2022-11-16T02:19:32.765Z,38.05
2022-11-16T02:21:02.220Z,37.97
2022-11-16T02:22:32.590Z,42.15
2022-11-16T02:23:46.798Z,35.95
2022-11-16T02:25:03.527Z,36.08
2022-11-16T02:26:16.958Z,35.53
2022-11-16T02:27:37.057Z,37.17
2022-11-16T02:28:58.392Z,33.50
2022-11-16T02:29:59.925Z,37.40
2022-11-16T02:31:02.538Z,38.38
2022-11-16T02:32:16.786Z,38.80
2022-11-16T02:33:20.410Z,38.63
2022-11-16T02:34:22.075Z,40.45
2022-11-16T02:35:29.354Z,40.15
2022-11-16T02:36:30.908Z,39.65
2022-11-16T02:37:37.989Z,40.00
2022-11-16T02:38:40.187Z,35.83
2022-11-16T02:39:41.749Z,39.25
2022-11-16T02:40:45.669Z,40.75
2022-11-16T02:41:47.956Z,42.60
2022-11-16T02:42:59.405Z,39.60
2022-11-16T02:44:03.132Z,39.00
2022-11-16T02:45:06.409Z,38.35
2022-11-16T02:46:10.036Z,39.92
2022-11-16T02:47:14.959Z,38.95
2022-11-16T02:48:24.732Z,40.80
2022-11-16T02:49:26.547Z,41.70
2022-11-16T02:50:28.129Z,37.65
2022-11-16T02:51:29.729Z,43.47
2022-11-16T02:52:31.309Z,40.08
2022-11-16T02:53:41.490Z,41.92
2022-11-16T02:54:43.155Z,41.35
2022-11-16T02:55:44.703Z,44.55
2022-11-16T02:57:04.244Z,42.08
2022-11-16T02:58:06.149Z,41.55
2022-11-16T02:59:08.150Z,40.58
2022-11-16T03:00:12.507Z,40.30
2022-11-16T03:01:16.499Z,42.90
2022-11-16T03:02:33.014Z,40.40
2022-11-16T03:03:43.206Z,39.40
2022-11-16T03:04:49.309Z,40.13
2022-11-16T03:05:53.224Z,38.45
2022-11-16T03:06:54.888Z,40.58
2022-11-16T03:08:02.041Z,40.85
2022-11-16T03:09:09.105Z,37.47
2022-11-16T03:10:10.746Z,39.47
2022-11-16T03:11:31.093Z,37.67
2022-11-16T03:12:35.037Z,38.53
2022-11-16T03:13:36.712Z,42.47
2022-11-16T03:14:42.330Z,41.85
2022-11-16T03:15:43.918Z,40.33
2022-11-16T03:16:48.089Z,42.67
2022-11-16T03:17:49.992Z,37.88
2022-11-16T03:18:51.986Z,38.65
2022-11-16T03:20:28.422Z,41.70
2022-11-16T03:21:45.607Z,40.30
2022-11-16T03:22:55.142Z,36.70
2022-11-16T03:23:56.756Z,36.58
2022-11-16T03:24:58.521Z,35.70
2022-11-16T03:26:00.056Z,36.85
2022-11-16T03:27:22.722Z,39.83
2022-11-16T03:28:48.280Z,39.97
2022-11-16T03:29:52.812Z,37.78
2022-11-16T03:31:04.286Z,39.00
2022-11-16T03:32:14.479Z,38.65
2022-11-16T03:33:49.014Z,39.83
2022-11-16T03:34:56.645Z,36.37
2022-11-16T03:36:04.897Z,36.13
2022-11-16T03:37:06.506Z,37.58
2022-11-16T03:38:08.077Z,35.28
2022-11-16T03:39:12.703Z,37.80
2022-11-16T03:40:14.294Z,41.25
2022-11-16T03:41:15.958Z,36.45
2022-11-16T03:42:17.561Z,37.45
2022-11-16T03:43:20.417Z,40.47
2022-11-16T03:44:22.175Z,40.28
2022-11-16T03:45:23.706Z,43.53
2022-11-16T03:46:25.310Z,42.50
2022-11-16T03:47:26.863Z,43.15
2022-11-16T03:48:38.927Z,44.30
2022-11-16T03:49:44.747Z,41.38
2022-11-16T03:50:46.367Z,44.00
2022-11-16T03:51:48.549Z,42.53
2022-11-16T03:52:50.137Z,39.28
2022-11-16T03:53:51.774Z,39.17
2022-11-16T03:54:53.780Z,39.05
2022-11-16T03:55:55.436Z,40.50
2022-11-16T03:56:57.059Z,38.20
2022-11-16T03:57:58.698Z,39.25
2022-11-16T03:59:00.283Z,39.70
2022-11-16T04:00:01.849Z,40.53
2022-11-16T04:01:03.713Z,40.33
2022-11-16T04:02:05.377Z,40.80
2022-11-16T04:03:07.025Z,42.58
2022-11-16T04:04:28.520Z,38.90
2022-11-16T04:05:48.411Z,39.80
2022-11-16T04:07:08.338Z,40.70
2022-11-16T04:08:37.481Z,41.05
2022-11-16T04:09:57.413Z,43.70
2022-11-16T04:11:17.789Z,43.95
2022-11-16T04:12:37.634Z,38.30
2022-11-16T04:13:57.839Z,40.60
2022-11-16T04:15:17.683Z,46.65
2022-11-16T04:16:38.151Z,44.58
2022-11-16T04:17:58.251Z,46.03
2022-11-16T04:19:18.752Z,47.63
2022-11-16T04:20:39.040Z,44.40
2022-11-16T04:22:01.261Z,39.42
2022-11-16T04:23:26.813Z,41.22
2022-11-16T04:24:29.981Z,41.25
2022-11-16T04:25:32.303Z,43.92
2022-11-16T04:26:52.308Z,38.28
2022-11-16T04:28:12.922Z,37.65
2022-11-16T04:29:14.486Z,37.60
2022-11-16T04:30:16.322Z,38.38
2022-11-16T04:31:36.335Z,41.97
2022-11-16T04:32:56.533Z,39.20
2022-11-16T04:34:16.400Z,37.30
2022-11-16T04:35:36.688Z,34.28
2022-11-16T04:36:56.635Z,34.05
2022-11-16T04:37:58.404Z,37.15
2022-11-16T04:38:59.995Z,36.30
2022-11-16T04:40:01.662Z,37.08
2022-11-16T04:41:03.221Z,48.38
2022-11-16T04:42:14.368Z,49.33
2022-11-16T04:43:16.040Z,43.20
2022-11-16T04:44:17.755Z,38.70
2022-11-16T04:45:38.565Z,38.58
2022-11-16T04:46:58.358Z,42.30
2022-11-16T04:47:59.928Z,41.08
2022-11-16T04:49:01.456Z,45.50
2022-11-16T04:50:03.401Z,42.33
2022-11-16T04:51:05.021Z,39.50
2022-11-16T04:52:06.628Z,38.63
2022-11-16T04:53:08.389Z,38.67
2022-11-16T04:54:09.958Z,33.97
2022-11-16T04:55:12.203Z,35.43
2022-11-16T04:56:13.828Z,37.25
2022-11-16T04:57:15.389Z,34.50
2022-11-16T04:58:16.958Z,32.17
2022-11-16T04:59:18.607Z,36.05
2022-11-16T05:00:20.187Z,33.80
2022-11-16T05:01:41.773Z,41.00
2022-11-16T05:02:43.360Z,35.92
2022-11-16T05:03:44.910Z,37.25
2022-11-16T05:04:46.562Z,34.80
2022-11-16T05:05:49.887Z,35.10
2022-11-16T05:06:51.450Z,33.78
2022-11-16T05:07:53.096Z,37.55
2022-11-16T05:08:54.675Z,38.65
2022-11-16T05:09:56.282Z,34.28
2022-11-16T05:10:57.884Z,36.63
2022-11-16T05:11:59.427Z,35.97
2022-11-16T05:13:00.962Z,38.33
2022-11-16T05:14:02.637Z,40.78
2022-11-16T05:15:05.003Z,35.22
2022-11-16T05:16:06.848Z,36.13
2022-11-16T05:17:08.506Z,37.35
2022-11-16T05:18:10.043Z,35.20
2022-11-16T05:19:30.030Z,39.35
2022-11-16T05:20:50.240Z,35.47
2022-11-16T05:21:51.784Z,34.28
2022-11-16T05:22:57.471Z,34.50
2022-11-16T05:24:17.535Z,35.33
2022-11-16T05:25:19.236Z,34.20
2022-11-16T05:26:20.786Z,44.22
2022-11-16T05:27:23.028Z,38.23
2022-11-16T05:28:24.648Z,34.17
2022-11-16T05:29:26.185Z,33.70
2022-11-16T05:30:29.690Z,36.17
2022-11-16T05:31:35.062Z,34.53
2022-11-16T05:32:39.244Z,34.35
2022-11-16T05:33:40.836Z,34.20
2022-11-16T05:34:42.473Z,34.05
2022-11-16T05:35:44.185Z,40.15
2022-11-16T05:36:45.725Z,47.30
2022-11-16T05:37:47.373Z,45.20
2022-11-16T05:38:52.642Z,40.20
2022-11-16T05:39:57.106Z,41.45
2022-11-16T05:40:58.718Z,41.90
2022-11-16T05:42:00.351Z,38.97
2022-11-16T05:43:01.981Z,38.80
2022-11-16T05:44:03.660Z,37.00
2022-11-16T05:45:05.657Z,35.38
2022-11-16T05:46:07.244Z,38.20
2022-11-16T05:47:08.800Z,35.80
2022-11-16T05:48:10.383Z,37.67
2022-11-16T05:49:12.361Z,34.75
2022-11-16T05:50:13.922Z,37.45
2022-11-16T05:51:15.567Z,36.80
2022-11-16T05:52:17.112Z,35.53
2022-11-16T05:53:18.663Z,35.13
2022-11-16T05:54:21.572Z,41.92
2022-11-16T05:55:23.128Z,42.58
2022-11-16T05:56:24.847Z,41.38
2022-11-16T05:57:26.456Z,42.83
2022-11-16T05:58:28.060Z,41.97
2022-11-16T05:59:30.159Z,55.22
2022-11-16T06:00:31.723Z,45.70
2022-11-16T06:01:33.318Z,43.45
2022-11-16T06:02:34.935Z,41.45
2022-11-16T06:03:36.643Z,44.47
2022-11-16T06:04:38.243Z,45.78
2022-11-16T06:05:40.834Z,41.22
2022-11-16T06:06:42.540Z,45.03
2022-11-16T06:07:44.153Z,39.20
2022-11-16T06:08:45.755Z,44.20
2022-11-16T06:09:47.383Z,38.30
2022-11-16T06:10:48.936Z,39.13
2022-11-16T06:11:50.469Z,39.70
2022-11-16T06:12:52.069Z,36.72
2022-11-16T06:13:53.626Z,37.80
2022-11-16T06:14:55.225Z,33.70
2022-11-16T06:15:56.773Z,35.97
2022-11-16T06:16:58.342Z,35.80
2022-11-16T06:17:59.898Z,35.92
2022-11-16T06:19:01.510Z,34.70
2022-11-16T06:20:03.206Z,37.92
2022-11-16T06:21:05.004Z,35.85
2022-11-16T06:22:06.820Z,38.00
2022-11-16T06:23:08.395Z,36.90
2022-11-16T06:24:09.998Z,37.08
2022-11-16T06:25:11.595Z,38.05
2022-11-16T06:26:13.152Z,38.58
2022-11-16T06:27:15.994Z,40.65
2022-11-16T06:28:17.559Z,42.15
2022-11-16T06:29:19.181Z,38.23
2022-11-16T06:30:20.705Z,38.60
2022-11-16T06:31:22.433Z,36.38
2022-11-16T06:32:23.979Z,38.75
2022-11-16T06:33:28.531Z,37.17
2022-11-16T06:34:32.475Z,37.83
2022-11-16T06:35:34.093Z,35.05
2022-11-16T06:36:36.008Z,38.25
2022-11-16T06:37:37.594Z,34.63
2022-11-16T06:38:39.177Z,37.63
2022-11-16T06:39:40.720Z,37.80
2022-11-16T06:40:42.260Z,36.10
2022-11-16T06:41:43.902Z,38.20
2022-11-16T06:42:45.527Z,41.20
2022-11-16T06:43:47.078Z,40.03
2022-11-16T06:44:48.690Z,38.13
2022-11-16T06:45:57.768Z,35.88
2022-11-16T06:46:59.336Z,37.97
2022-11-16T06:48:00.875Z,37.28
2022-11-16T06:49:02.430Z,38.50
2022-11-16T06:50:04.253Z,38.37
2022-11-16T06:51:06.055Z,37.10
2022-11-16T06:52:07.605Z,35.63
2022-11-16T06:53:09.181Z,36.33
2022-11-16T06:54:10.726Z,34.78
2022-11-16T06:55:12.569Z,36.22
2022-11-16T06:56:14.370Z,35.40
2022-11-16T06:57:15.952Z,38.10
2022-11-16T06:58:17.714Z,36.10
2022-11-16T06:59:19.300Z,34.75
2022-11-16T07:00:20.849Z,34.13
2022-11-16T07:01:22.457Z,34.17
2022-11-16T07:02:24.188Z,33.70
2022-11-16T07:03:25.766Z,33.83
2022-11-16T07:04:27.396Z,35.97
2022-11-16T07:05:29.245Z,34.47
2022-11-16T07:06:30.882Z,34.90
2022-11-16T07:07:32.881Z,33.47
2022-11-16T07:08:34.817Z,33.72
2022-11-16T07:09:36.556Z,37.67
2022-11-16T07:10:38.406Z,41.90
2022-11-16T07:11:40.041Z,39.80
2022-11-16T07:12:41.619Z,34.65
2022-11-16T07:13:43.179Z,37.20
2022-11-16T07:14:45.549Z,34.03
2022-11-16T07:15:47.115Z,38.03
2022-11-16T07:16:48.771Z,34.35
2022-11-16T07:17:50.358Z,36.15
2022-11-16T07:18:51.928Z,34.60
2022-11-16T07:19:53.515Z,37.17
2022-11-16T07:20:55.076Z,35.30
2022-11-16T07:21:56.710Z,39.55
2022-11-16T07:23:02.103Z,38.70
2022-11-16T07:24:03.707Z,34.25
2022-11-16T07:25:05.698Z,36.78
2022-11-16T07:26:07.848Z,43.95
2022-11-16T07:27:09.485Z,37.65
2022-11-16T07:28:11.044Z,35.22
2022-11-16T07:29:13.910Z,36.72
2022-11-16T07:30:15.536Z,34.75
2022-11-16T07:31:17.178Z,34.60
2022-11-16T07:32:18.754Z,33.80
2022-11-16T07:33:20.295Z,32.70
2022-11-16T07:34:21.908Z,34.00
2022-11-16T07:35:23.719Z,33.90
2022-11-16T07:36:25.313Z,32.42
2022-11-16T07:37:26.873Z,33.30
2022-11-16T07:38:28.627Z,33.15
2022-11-16T07:39:30.174Z,31.90
2022-11-16T07:40:31.776Z,36.05
2022-11-16T07:41:33.323Z,35.57
2022-11-16T07:42:34.982Z,34.22
2022-11-16T07:43:36.581Z,33.50
2022-11-16T07:44:38.868Z,33.47
2022-11-16T07:45:40.553Z,32.33
2022-11-16T07:46:46.990Z,34.78
2022-11-16T07:47:52.425Z,34.50
2022-11-16T07:48:54.098Z,34.65
2022-11-16T07:49:55.634Z,33.67
2022-11-16T07:51:01.503Z,33.67
2022-11-16T07:52:03.606Z,33.10
2022-11-16T07:53:05.172Z,33.92
2022-11-16T07:54:06.756Z,33.50
2022-11-16T07:55:08.397Z,32.17
2022-11-16T07:56:10.391Z,31.67
2022-11-16T07:57:11.960Z,34.38
2022-11-16T07:58:13.566Z,34.33
2022-11-16T07:59:15.249Z,32.75
2022-11-16T08:00:17.268Z,31.60
2022-11-16T08:01:19.038Z,30.83
2022-11-16T08:02:20.632Z,33.30
2022-11-16T08:03:24.823Z,32.97
2022-11-16T08:04:26.612Z,34.05
2022-11-16T08:05:28.240Z,31.55
2022-11-16T08:06:30.778Z,32.15
2022-11-16T08:07:33.464Z,33.88
2022-11-16T08:08:35.294Z,31.40
2022-11-16T08:09:38.133Z,31.95
2022-11-16T08:10:39.738Z,33.80
2022-11-16T08:11:41.644Z,31.13
2022-11-16T08:12:43.243Z,31.07
2022-11-16T08:13:44.866Z,34.90
2022-11-16T08:14:46.472Z,35.63
2022-11-16T08:15:48.076Z,32.88
2022-11-16T08:16:49.611Z,32.78
2022-11-16T08:17:51.377Z,33.53
2022-11-16T08:18:52.936Z,33.53
2022-11-16T08:19:54.691Z,33.47
2022-11-16T08:20:58.718Z,32.08
2022-11-16T08:22:00.378Z,32.47
2022-11-16T08:23:01.995Z,33.37
2022-11-16T08:24:03.760Z,34.40
2022-11-16T08:25:05.909Z,33.97
2022-11-16T08:26:14.325Z,35.33
2022-11-16T08:27:17.479Z,34.92
2022-11-16T08:28:19.052Z,33.95
2022-11-16T08:29:20.971Z,34.35
2022-11-16T08:30:22.570Z,38.13
2022-11-16T08:31:26.293Z,37.28
2022-11-16T08:32:29.787Z,33.22
2022-11-16T08:33:31.357Z,34.10
2022-11-16T08:34:33.795Z,34.53
2022-11-16T08:35:35.930Z,34.03
2022-11-16T08:36:37.487Z,33.03
2022-11-16T08:37:39.055Z,34.08
2022-11-16T08:38:40.705Z,33.33
2022-11-16T08:39:42.302Z,34.88
2022-11-16T08:40:43.938Z,34.80
2022-11-16T08:41:45.699Z,34.53
2022-11-16T08:42:47.320Z,35.03
2022-11-16T08:43:50.879Z,34.33
2022-11-16T08:44:52.565Z,32.63
2022-11-16T08:45:54.219Z,34.63
2022-11-16T08:46:55.795Z,34.08
2022-11-16T08:48:03.585Z,32.97
2022-11-16T08:49:05.693Z,34.15
2022-11-16T08:50:07.561Z,32.10
2022-11-16T08:51:17.417Z,33.03
2022-11-16T08:52:20.313Z,34.15
2022-11-16T08:53:21.867Z,36.55
2022-11-16T08:54:23.418Z,35.70
2022-11-16T08:55:25.496Z,40.22
2022-11-16T08:56:27.511Z,38.80
2022-11-16T08:57:29.784Z,34.97
2022-11-16T08:58:31.665Z,35.78
2022-11-16T08:59:33.491Z,34.67
2022-11-16T09:00:35.106Z,37.28
2022-11-16T09:01:36.750Z,41.35
2022-11-16T09:02:38.519Z,39.40
2022-11-16T09:03:40.314Z,41.38
2022-11-16T09:04:42.423Z,36.40
2022-11-16T09:05:44.034Z,37.17
2022-11-16T09:06:45.784Z,35.10
2022-11-16T09:07:47.363Z,34.60
2022-11-16T09:08:48.949Z,32.78
2022-11-16T09:09:50.679Z,33.30
2022-11-16T09:10:52.244Z,35.33
2022-11-16T09:11:55.310Z,32.80
2022-11-16T09:12:56.960Z,32.72
2022-11-16T09:13:59.122Z,34.35
2022-11-16T09:15:00.689Z,36.77
2022-11-16T09:16:02.299Z,33.70
2022-11-16T09:17:03.827Z,34.92
2022-11-16T09:18:05.469Z,33.45
2022-11-16T09:19:07.024Z,34.97
2022-11-16T09:20:09.042Z,33.47
2022-11-16T09:21:10.602Z,34.28
2022-11-16T09:22:12.180Z,34.30
2022-11-16T09:23:13.764Z,34.95
2022-11-16T09:24:15.344Z,34.75
2022-11-16T09:25:19.206Z,32.30
2022-11-16T09:26:23.284Z,34.00
2022-11-16T09:27:24.976Z,32.17
2022-11-16T09:28:27.354Z,33.50
2022-11-16T09:29:28.966Z,34.65
2022-11-16T09:30:31.523Z,33.63
2022-11-16T09:31:34.890Z,39.42
2022-11-16T09:32:36.536Z,39.05
2022-11-16T09:33:38.214Z,36.65
2022-11-16T09:34:40.122Z,37.95
2022-11-16T09:35:41.723Z,37.33
2022-11-16T09:36:43.267Z,34.50
2022-11-16T09:37:44.891Z,35.15
2022-11-16T09:39:19.061Z,36.25
2022-11-16T09:40:08.970Z,34.95
2022-11-16T09:41:15.370Z,32.30
2022-11-16T09:42:25.707Z,34.58
2022-11-16T09:43:51.804Z,36.45
2022-11-16T09:45:08.472Z,34.53
2022-11-16T09:46:29.720Z,34.40
2022-11-16T09:47:38.949Z,34.67
2022-11-16T09:48:40.526Z,38.30
2022-11-16T09:49:43.963Z,33.75
2022-11-16T09:50:58.674Z,35.95
2022-11-16T09:52:02.149Z,36.00
2022-11-16T09:53:16.708Z,34.72
2022-11-16T09:54:34.193Z,35.70
2022-11-16T09:55:43.576Z,35.45
2022-11-16T09:56:45.118Z,32.58
2022-11-16T09:57:46.728Z,36.63
2022-11-16T09:59:15.183Z,36.37
2022-11-16T10:00:22.879Z,35.65
2022-11-16T10:01:24.629Z,33.55
2022-11-16T10:02:29.144Z,36.05
2022-11-16T10:03:32.250Z,37.83
2022-11-16T10:04:39.172Z,34.45
2022-11-16T10:05:46.796Z,35.28
2022-11-16T10:07:00.088Z,36.78
2022-11-16T10:08:15.660Z,35.58
2022-11-16T10:09:17.226Z,34.58
2022-11-16T10:10:27.843Z,34.77
2022-11-16T10:11:45.302Z,36.45
2022-11-16T10:12:53.041Z,33.38
2022-11-16T10:14:12.712Z,34.35
2022-11-16T10:15:39.713Z,36.35
2022-11-16T10:17:11.653Z,34.10
2022-11-16T10:18:13.332Z,35.90
2022-11-16T10:19:39.749Z,34.00
2022-11-16T10:20:53.196Z,31.77
2022-11-16T10:22:06.897Z,35.15
2022-11-16T10:23:33.742Z,32.63
2022-11-16T10:24:44.601Z,31.52
2022-11-16T10:25:47.139Z,32.80
2022-11-16T10:26:51.096Z,32.65
2022-11-16T10:27:55.207Z,34.03
2022-11-16T10:29:22.143Z,32.40
2022-11-16T10:30:23.777Z,36.63
2022-11-16T10:31:32.557Z,33.75
2022-11-16T10:32:47.793Z,36.10
2022-11-16T10:33:49.881Z,35.60
2022-11-16T10:35:13.111Z,35.67
2022-11-16T10:36:15.342Z,36.47
2022-11-16T10:37:16.943Z,35.28
2022-11-16T10:38:21.926Z,33.53
2022-11-16T10:39:24.158Z,32.80
2022-11-16T10:40:29.148Z,33.22
2022-11-16T10:41:31.955Z,31.83
2022-11-16T10:42:36.629Z,32.08
2022-11-16T10:43:38.173Z,33.10
2022-11-16T10:44:45.611Z,33.22
2022-11-16T10:45:55.959Z,34.27
2022-11-16T10:47:03.433Z,32.20
2022-11-16T10:48:19.947Z,31.95
2022-11-16T10:49:25.426Z,33.72
2022-11-16T10:50:48.217Z,34.92
2022-11-16T10:51:49.839Z,34.22
2022-11-16T10:52:51.382Z,33.00
2022-11-16T10:53:54.260Z,33.15
2022-11-16T10:54:55.819Z,32.83
2022-11-16T10:56:31.819Z,32.47
2022-11-16T10:58:01.890Z,30.30
2022-11-16T10:59:05.425Z,31.73
2022-11-16T11:00:12.680Z,31.65
2022-11-16T11:01:38.647Z,31.30
2022-11-16T11:02:41.506Z,29.60
2022-11-16T11:03:43.055Z,30.67
2022-11-16T11:04:44.599Z,32.15
2022-11-16T11:05:48.503Z,32.97
2022-11-16T11:06:54.906Z,32.47
2022-11-16T11:08:02.183Z,30.42
2022-11-16T11:09:28.715Z,31.83
2022-11-16T11:10:40.759Z,30.70
2022-11-16T11:12:01.038Z,31.80
2022-11-16T11:13:29.034Z,32.15
2022-11-16T11:14:32.575Z,31.88
2022-11-16T11:15:34.180Z,30.52
2022-11-16T11:16:35.876Z,30.50
2022-11-16T11:17:41.730Z,31.73
2022-11-16T11:18:43.404Z,31.63
2022-11-16T11:19:44.942Z,32.60
2022-11-16T11:20:51.486Z,30.43
2022-11-16T11:21:57.397Z,30.80
2022-11-16T11:22:59.985Z,33.50
2022-11-16T11:24:16.358Z,31.08
2022-11-16T11:25:24.026Z,34.47
2022-11-16T11:26:40.570Z,42.55
2022-11-16T11:27:42.171Z,36.55
2022-11-16T11:28:47.032Z,35.05
2022-11-16T11:29:51.536Z,32.30
2022-11-16T11:31:12.188Z,32.65
2022-11-16T11:32:19.445Z,30.50
2022-11-16T11:33:25.763Z,30.95
2022-11-16T11:34:28.601Z,33.75
2022-11-16T11:35:31.513Z,33.10
2022-11-16T11:36:35.842Z,33.13
2022-11-16T11:37:37.553Z,31.27
2022-11-16T11:39:04.767Z,30.98
2022-11-16T11:40:18.655Z,29.65
2022-11-16T11:41:20.199Z,32.05
2022-11-16T11:42:22.979Z,31.90
2022-11-16T11:43:27.475Z,33.07
2022-11-16T11:45:05.798Z,30.42
2022-11-16T11:46:15.820Z,32.47
2022-11-16T11:48:03.192Z,30.27
2022-11-16T11:49:13.465Z,32.85
2022-11-16T11:50:25.303Z,31.02
2022-11-16T11:51:31.465Z,32.33
2022-11-16T11:52:39.258Z,32.42
2022-11-16T11:53:56.465Z,30.67
2022-11-16T11:54:58.102Z,31.85
2022-11-16T11:55:59.684Z,33.63
2022-11-16T11:57:01.287Z,33.03
2022-11-16T11:58:03.872Z,34.35
2022-11-16T11:59:05.563Z,34.88
2022-11-16T12:00:09.238Z,37.40
2022-11-16T12:01:32.631Z,31.73
2022-11-16T12:02:57.408Z,31.52
2022-11-16T12:03:59.055Z,30.58
2022-11-16T12:05:12.462Z,30.33
2022-11-16T12:06:22.571Z,31.15
2022-11-16T12:07:36.301Z,31.07
2022-11-16T12:09:10.057Z,29.17
2022-11-16T12:10:17.974Z,29.40
2022-11-16T12:11:42.037Z,29.77
2022-11-16T12:13:07.833Z,31.15
2022-11-16T12:14:34.352Z,29.75
2022-11-16T12:15:42.135Z,28.60
2022-11-16T12:17:40.629Z,27.63
2022-11-16T12:18:42.149Z,27.98
2022-11-16T12:20:17.602Z,29.27
2022-11-16T12:21:23.068Z,28.50
2022-11-16T12:22:48.884Z,28.75
2022-11-16T12:23:50.389Z,28.08
2022-11-16T12:25:20.775Z,27.60
2022-11-16T12:26:41.406Z,27.73
2022-11-16T12:27:56.391Z,27.73
2022-11-16T12:29:04.034Z,26.98
2022-11-16T12:30:13.916Z,28.63
2022-11-16T12:31:40.305Z,29.23
2022-11-16T12:32:53.105Z,29.55
2022-11-16T12:34:15.946Z,28.23
2022-11-16T12:35:23.472Z,27.58
2022-11-16T12:37:23.824Z,25.98
2022-11-16T12:38:40.792Z,28.20
2022-11-16T12:40:08.517Z,28.50
2022-11-16T12:41:25.350Z,28.27
2022-11-16T12:42:46.173Z,27.05
2022-11-16T12:43:47.699Z,28.33
2022-11-16T12:44:58.357Z,26.60
2022-11-16T12:46:24.483Z,27.00
2022-11-16T12:47:39.706Z,28.88
2022-11-16T12:49:25.170Z,27.88
2022-11-16T12:50:54.524Z,26.45
2022-11-16T12:52:29.511Z,26.05
2022-11-16T12:53:43.254Z,25.50
2022-11-16T12:55:24.097Z,26.02
2022-11-16T12:56:34.322Z,25.60
2022-11-16T12:57:44.703Z,25.58
2022-11-16T12:59:11.595Z,27.90
2022-11-16T13:00:17.590Z,25.50
2022-11-16T13:01:28.810Z,24.30
2022-11-16T13:02:45.141Z,25.85
2022-11-16T13:03:54.346Z,24.10
2022-11-16T13:05:05.669Z,24.88
2022-11-16T13:06:09.963Z,25.02
2022-11-16T13:07:17.370Z,25.00
2022-11-16T13:08:24.735Z,24.63
2022-11-16T13:09:30.950Z,23.02
2022-11-16T13:10:35.900Z,23.98
2022-11-16T13:11:39.807Z,24.67
2022-11-16T13:12:41.832Z,24.80
2022-11-16T13:13:48.083Z,23.15
2022-11-16T13:14:54.807Z,25.05
2022-11-16T13:15:58.248Z,24.83
2022-11-16T13:17:00.728Z,25.65
2022-11-16T13:18:03.318Z,24.75
2022-11-16T13:19:05.964Z,24.52
2022-11-16T13:20:18.763Z,25.00
2022-11-16T13:21:29.149Z,24.80
2022-11-16T13:22:30.698Z,23.83
2022-11-16T13:23:32.599Z,25.77
2022-11-16T13:24:51.122Z,24.73
2022-11-16T13:26:10.590Z,25.13
2022-11-16T13:27:12.111Z,25.45
2022-11-16T13:28:38.806Z,23.63
2022-11-16T13:29:49.678Z,23.10
2022-11-16T13:30:58.858Z,22.35
2022-11-16T13:32:10.941Z,22.02
2022-11-16T13:33:28.006Z,23.65
2022-11-16T13:34:32.298Z,25.67
2022-11-16T13:35:36.416Z,23.20
2022-11-16T13:36:45.373Z,23.02
2022-11-16T13:37:51.733Z,20.27
2022-11-16T13:38:53.650Z,19.40
2022-11-16T13:39:58.092Z,21.98
2022-11-16T13:41:31.507Z,20.63
2022-11-16T13:42:39.139Z,20.63
2022-11-16T13:43:47.489Z,19.63
2022-11-16T13:44:51.635Z,21.10
2022-11-16T13:45:54.870Z,21.90
2022-11-16T13:47:06.092Z,20.92
2022-11-16T13:48:25.507Z,20.10
2022-11-16T13:49:42.408Z,19.02
2022-11-16T13:50:49.252Z,18.95
2022-11-16T13:52:35.674Z,19.75
2022-11-16T13:55:01.690Z,20.40
2022-11-16T13:56:05.198Z,22.40
2022-11-16T13:57:20.720Z,19.85
2022-11-16T13:58:22.303Z,19.90
2022-11-16T13:59:28.689Z,19.17
2022-11-16T14:00:36.964Z,17.65
2022-11-16T14:01:57.977Z,17.52
2022-11-16T14:03:22.829Z,17.17
2022-11-16T14:04:41.272Z,15.90
2022-11-16T14:05:49.745Z,17.60
2022-11-16T14:06:51.324Z,17.33
2022-11-16T14:07:52.903Z,17.30
2022-11-16T14:08:55.367Z,16.25
2022-11-16T14:09:56.956Z,15.80
2022-11-16T14:11:01.653Z,15.60
2022-11-16T14:12:40.639Z,16.65
2022-11-16T14:13:43.843Z,17.63
2022-11-16T14:15:04.075Z,21.65
2022-11-16T14:16:17.956Z,19.70
2022-11-16T14:17:51.783Z,17.27
2022-11-16T14:18:57.533Z,19.02
2022-11-16T14:19:59.095Z,25.13